createdAt,value
2022-11-16T00:01:43.256Z,12.13
2022-11-16T00:04:12.195Z,10.88
2022-11-16T00:06:43.497Z,11.20
2022-11-16T00:09:24.161Z,13.10
2022-11-16T00:11:57.526Z,12.77
2022-11-16T00:14:29.501Z,13.15
2022-11-16T00:17:08.443Z,14.02
2022-11-16T00:19:39.480Z,13.68
2022-11-16T00:22:07.209Z,14.02
2022-11-16T00:24:35.180Z,14.98
2022-11-16T00:27:05.625Z,14.43
2022-11-16T00:31:40.121Z,14.98
2022-11-16T00:32:33.917Z,15.93
2022-11-16T00:35:01.747Z,14.18
2022-11-16T00:37:29.512Z,14.57
2022-11-16T00:39:59.564Z,14.27
2022-11-16T00:42:32.987Z,14.57
2022-11-16T00:45:00.751Z,14.32
2022-11-16T00:47:28.751Z,13.98
2022-11-16T00:49:58.399Z,14.40
2022-11-16T00:52:26.374Z,14.70
2022-11-16T00:55:18.403Z,15.07
2022-11-16T00:57:51.503Z,14.93
2022-11-16T01:00:21.601Z,14.55
2022-11-16T01:02:56.910Z,14.50
2022-11-16T01:05:31.662Z,13.38
2022-11-16T01:08:38.864Z,13.15
2022-11-16T01:11:26.049Z,11.07
2022-11-16T01:14:17.508Z,10.73
2022-11-16T01:16:46.474Z,11.75
2022-11-16T01:19:20.227Z,10.18
2022-11-16T01:21:51.102Z,10.48
2022-11-16T01:24:18.569Z,11.32
2022-11-16T01:26:46.182Z,12.80
2022-11-16T01:29:14.024Z,13.57
2022-11-16T01:31:48.755Z,12.75
2022-11-16T01:34:16.866Z,12.48
2022-11-16T01:36:44.819Z,12.27
2022-11-16T01:39:20.272Z,12.68
2022-11-16T01:41:55.777Z,13.55
2022-11-16T01:44:52.507Z,13.70
2022-11-16T01:47:33.791Z,13.32
2022-11-16T01:50:17.272Z,13.20
2022-11-16T01:53:01.520Z,13.02
2022-11-16T01:55:40.799Z,12.68
2022-11-16T01:58:26.620Z,12.35
2022-11-16T02:01:00.094Z,13.30
2022-11-16T02:03:40.222Z,13.45
2022-11-16T02:06:27.967Z,13.25
2022-11-16T02:09:55.165Z,13.63
2022-11-16T02:13:29.418Z,13.60
2022-11-16T02:16:34.809Z,14.05
2022-11-16T02:20:20.571Z,13.77
2022-11-16T02:23:45.820Z,13.85
2022-11-16T02:26:44.408Z,12.80
2022-11-16T02:29:29.243Z,13.68
2022-11-16T02:32:38.488Z,13.02
2022-11-16T02:35:56.522Z,13.07
2022-11-16T02:38:34.166Z,13.70
2022-11-16T02:41:14.323Z,12.30
2022-11-16T02:43:50.758Z,13.65
2022-11-16T02:46:30.152Z,12.65
2022-11-16T02:49:10.507Z,13.02
2022-11-16T02:51:40.129Z,12.85
2022-11-16T02:54:24.913Z,12.38
2022-11-16T02:57:03.261Z,12.70
2022-11-16T02:59:56.469Z,13.15
2022-11-16T03:02:52.623Z,12.60
2022-11-16T03:05:40.028Z,13.13
2022-11-16T03:08:33.162Z,13.23
2022-11-16T03:11:27.581Z,12.30
2022-11-16T03:14:12.049Z,13.32
2022-11-16T03:16:47.003Z,12.23
2022-11-16T03:19:28.685Z,12.55
2022-11-16T03:22:35.762Z,12.68
2022-11-16T03:25:10.329Z,12.55
2022-11-16T03:28:09.466Z,13.60
2022-11-16T03:30:49.885Z,13.02
2022-11-16T03:33:34.207Z,12.70
2022-11-16T03:36:13.914Z,13.57
2022-11-16T03:38:45.758Z,12.98
2022-11-16T03:41:45.271Z,13.38
2022-11-16T03:44:17.569Z,12.95
2022-11-16T03:46:47.696Z,12.68
2022-11-16T03:49:16.490Z,12.55
2022-11-16T03:51:43.943Z,13.20
2022-11-16T03:54:11.180Z,12.98
2022-11-16T03:56:39.870Z,13.68
2022-11-16T03:59:07.000Z,13.20
2022-11-16T04:01:34.983Z,12.05
2022-11-16T04:04:03.304Z,12.00
2022-11-16T04:07:03.064Z,11.88
2022-11-16T04:09:49.056Z,12.45
2022-11-16T04:12:35.067Z,12.65
2022-11-16T04:15:21.067Z,12.43
2022-11-16T04:18:07.026Z,12.68
2022-11-16T04:20:52.917Z,13.98
2022-11-16T04:23:39.774Z,12.93
2022-11-16T04:26:09.989Z,14.43
2022-11-16T04:28:38.749Z,14.93
2022-11-16T04:31:25.259Z,13.45
2022-11-16T04:34:20.086Z,14.48
2022-11-16T04:37:10.309Z,13.18
2022-11-16T04:39:38.691Z,14.27
2022-11-16T04:42:22.180Z,12.77
2022-11-16T04:45:38.300Z,13.70
2022-11-16T04:48:06.465Z,13.25
2022-11-16T04:50:36.625Z,13.23
2022-11-16T04:53:05.469Z,13.68
2022-11-16T04:55:38.979Z,12.75
2022-11-16T04:58:06.509Z,11.77
2022-11-16T05:00:33.893Z,11.77
2022-11-16T05:03:03.603Z,11.70
2022-11-16T05:05:30.804Z,13.15
2022-11-16T05:08:00.308Z,12.85
2022-11-16T05:10:31.651Z,12.65
2022-11-16T05:12:59.645Z,12.93
2022-11-16T05:15:28.443Z,12.40
2022-11-16T05:17:58.201Z,13.07
2022-11-16T05:20:45.142Z,12.45
2022-11-16T05:23:33.406Z,12.82
2022-11-16T05:26:06.453Z,13.60
2022-11-16T05:28:33.989Z,15.23
2022-11-16T05:31:02.540Z,14.13
2022-11-16T05:33:31.892Z,14.10
2022-11-16T05:35:59.115Z,13.57
2022-11-16T05:38:26.713Z,13.13
2022-11-16T05:41:03.305Z,13.48
2022-11-16T05:43:31.304Z,13.88
2022-11-16T05:46:08.229Z,13.73
2022-11-16T05:48:36.696Z,14.02
2022-11-16T05:51:06.569Z,14.35
2022-11-16T05:53:34.989Z,13.80
2022-11-16T05:56:03.378Z,14.32
2022-11-16T05:58:33.967Z,13.07
2022-11-16T06:01:02.390Z,12.75
2022-11-16T06:03:31.253Z,12.43
2022-11-16T06:05:59.736Z,12.93
2022-11-16T06:08:29.739Z,14.20
2022-11-16T06:11:07.529Z,14.23
2022-11-16T06:13:36.809Z,15.45
2022-11-16T06:16:05.994Z,13.82
2022-11-16T06:18:41.602Z,14.85
2022-11-16T06:21:11.318Z,15.10
2022-11-16T06:23:39.210Z,14.90
2022-11-16T06:26:08.653Z,14.13
2022-11-16T06:28:37.758Z,14.57
2022-11-16T06:31:06.614Z,14.80
2022-11-16T06:33:38.074Z,15.15
2022-11-16T06:36:10.385Z,14.73
2022-11-16T06:38:38.695Z,14.45
2022-11-16T06:41:07.955Z,14.48
2022-11-16T06:43:41.335Z,14.57
2022-11-16T06:46:09.422Z,15.15
2022-11-16T06:48:39.275Z,14.07
2022-11-16T06:51:11.134Z,14.20
2022-11-16T06:53:38.516Z,15.15
2022-11-16T06:56:07.786Z,15.13
2022-11-16T06:58:43.244Z,14.20
2022-11-16T07:01:13.069Z,14.52
2022-11-16T07:03:43.119Z,14.50
2022-11-16T07:06:13.784Z,14.63
2022-11-16T07:08:44.739Z,14.40
2022-11-16T07:11:15.134Z,14.75
2022-11-16T07:13:43.299Z,15.15
2022-11-16T07:16:12.478Z,14.85
2022-11-16T07:18:45.261Z,14.38
2022-11-16T07:21:16.689Z,14.95
2022-11-16T07:23:45.827Z,16.10
2022-11-16T07:26:18.985Z,15.50
2022-11-16T07:29:01.636Z,17.02
2022-11-16T07:31:30.789Z,16.25
2022-11-16T07:34:29.454Z,16.42
2022-11-16T07:37:13.113Z,17.23
2022-11-16T07:39:40.979Z,15.82
2022-11-16T07:42:11.770Z,15.77
2022-11-16T07:44:57.972Z,14.77
2022-11-16T07:47:25.674Z,14.80
2022-11-16T07:49:53.156Z,13.00
2022-11-16T07:52:22.234Z,15.98
2022-11-16T07:55:01.742Z,15.80
2022-11-16T07:57:31.190Z,17.17
2022-11-16T08:00:01.658Z,17.88
2022-11-16T08:02:40.827Z,17.88
2022-11-16T08:05:11.662Z,16.63
2022-11-16T08:07:40.165Z,16.23
2022-11-16T08:10:09.127Z,15.65
2022-11-16T08:12:36.360Z,17.63
2022-11-16T08:15:04.238Z,16.33
2022-11-16T08:17:31.563Z,16.63
2022-11-16T08:19:59.719Z,17.58
2022-11-16T08:22:26.933Z,17.35
2022-11-16T08:24:55.148Z,18.13
2022-11-16T08:27:24.879Z,18.40
2022-11-16T08:29:56.061Z,16.60
2022-11-16T08:32:23.428Z,16.92
2022-11-16T08:34:51.019Z,17.30
2022-11-16T08:37:18.626Z,17.05
2022-11-16T08:39:46.262Z,16.17
2022-11-16T08:42:14.039Z,18.25
2022-11-16T08:44:46.138Z,16.85
2022-11-16T08:47:16.034Z,17.25
2022-11-16T08:49:50.015Z,16.05
2022-11-16T08:52:19.152Z,16.48
2022-11-16T08:54:47.282Z,15.88
2022-11-16T08:57:15.390Z,14.77
2022-11-16T08:59:45.129Z,15.93
2022-11-16T09:02:14.916Z,12.65
2022-11-16T09:04:43.806Z,13.75
2022-11-16T09:07:11.649Z,11.52
2022-11-16T09:09:39.528Z,9.45
2022-11-16T09:12:07.203Z,8.45
2022-11-16T09:14:34.509Z,8.18
2022-11-16T09:17:01.692Z,6.70
2022-11-16T09:19:29.215Z,6.90
2022-11-16T09:21:56.425Z,7.57
2022-11-16T09:24:23.759Z,6.55
2022-11-16T09:26:51.668Z,6.40
2022-11-16T09:29:19.164Z,5.10
2022-11-16T09:31:46.584Z,5.53
2022-11-16T09:34:14.256Z,4.97
2022-11-16T09:36:41.487Z,4.80
2022-11-16T09:48:14.024Z,2.90
2022-11-16T09:51:07.536Z,2.88
2022-11-16T09:54:02.483Z,2.50
2022-11-16T09:56:49.467Z,2.50
2022-11-16T10:00:03.739Z,2.10
2022-11-16T10:03:03.779Z,1.60
2022-11-16T10:06:43.602Z,1.40
2022-11-16T10:08:57.012Z,1.48
2022-11-16T10:12:09.744Z,1.48
2022-11-16T10:15:25.554Z,1.60
2022-11-16T10:18:38.605Z,1.70
2022-11-16T10:21:50.248Z,1.50
2022-11-16T10:25:02.677Z,2.13
2022-11-16T10:27:53.637Z,1.90
2022-11-16T10:30:22.693Z,2.05
2022-11-16T10:33:11.590Z,1.70
2022-11-16T10:35:57.059Z,1.75
2022-11-16T10:38:31.371Z,1.80
2022-11-16T10:41:24.671Z,1.85
2022-11-16T10:43:55.715Z,2.40
2022-11-16T10:46:41.411Z,2.30
2022-11-16T10:49:50.733Z,1.70
2022-11-16T10:52:20.598Z,1.85
2022-11-16T10:54:47.878Z,2.22
2022-11-16T10:57:15.271Z,2.50
2022-11-16T10:59:53.339Z,2.13
2022-11-16T11:02:36.047Z,1.88
2022-11-16T11:05:17.104Z,2.10
2022-11-16T11:08:20.507Z,2.38
2022-11-16T11:11:25.510Z,1.98
2022-11-16T11:14:16.509Z,2.10
2022-11-16T11:17:41.203Z,2.30
2022-11-16T11:20:12.633Z,2.13
2022-11-16T11:23:50.970Z,1.88
2022-11-16T11:26:41.223Z,2.13
2022-11-16T11:29:24.383Z,2.30
2022-11-16T11:32:05.739Z,2.00
2022-11-16T11:34:45.638Z,2.30
2022-11-16T11:37:32.656Z,2.15
2022-11-16T11:40:46.831Z,2.38
2022-11-16T11:44:12.396Z,2.00
2022-11-16T11:50:22.560Z,2.05
2022-11-16T11:54:19.024Z,2.25
2022-11-16T11:57:32.840Z,2.30
2022-11-16T12:00:32.876Z,2.30
2022-11-16T12:03:17.401Z,2.40
2022-11-16T12:06:11.464Z,2.30
2022-11-16T12:09:19.448Z,2.42
2022-11-16T12:12:43.127Z,2.20
2022-11-16T12:15:44.040Z,1.80
2022-11-16T12:18:36.816Z,1.60
2022-11-16T12:21:34.052Z,1.48
2022-11-16T12:24:42.639Z,0.77
2022-11-16T12:27:48.577Z,0.90
2022-11-16T12:30:24.639Z,0.80
2022-11-16T12:34:00.147Z,0.80
2022-11-16T12:36:51.747Z,0.93
2022-11-16T12:40:09.052Z,0.70
2022-11-16T12:43:36.887Z,0.80
2022-11-16T12:46:59.479Z,1.08
2022-11-16T12:49:52.365Z,0.73
2022-11-16T12:52:44.996Z,1.10
2022-11-16T12:56:17.332Z,0.75
2022-11-16T13:00:16.258Z,0.98
2022-11-16T13:03:21.455Z,0.95
2022-11-16T13:06:15.315Z,1.00
2022-11-16T13:09:19.741Z,0.88
2022-11-16T13:12:03.409Z,1.20
2022-11-16T13:14:58.761Z,1.50
2022-11-16T13:17:37.724Z,1.60
2022-11-16T13:20:30.269Z,1.30
2022-11-16T13:23:34.599Z,1.67
2022-11-16T13:26:32.779Z,1.02
2022-11-16T13:29:16.194Z,1.15
2022-11-16T13:31:59.877Z,1.55
2022-11-16T13:34:38.104Z,1.30
2022-11-16T13:37:36.783Z,1.10
2022-11-16T13:40:06.528Z,1.10
2022-11-16T13:43:06.044Z,1.40
2022-11-16T13:45:53.087Z,1.20
2022-11-16T13:48:36.085Z,0.98
2022-11-16T13:51:08.494Z,1.10
2022-11-16T13:56:51.749Z,0.85
2022-11-16T13:59:36.562Z,0.77
2022-11-16T14:02:31.725Z,1.00
2022-11-16T14:05:16.489Z,1.40
2022-11-16T14:08:07.152Z,1.30
2022-11-16T14:10:37.393Z,1.30
2022-11-16T14:13:29.298Z,1.00
2022-11-16T14:16:21.693Z,1.17
2022-11-16T14:18:59.292Z,1.00
2022-11-16T14:21:48.898Z,1.55
2022-11-16T14:24:50.497Z,1.48
2022-11-16T14:27:36.301Z,1.08
2022-11-16T14:30:28.578Z,1.25
2022-11-16T14:32:57.843Z,1.15
2022-11-16T14:35:38.272Z,1.30
2022-11-16T14:38:43.230Z,1.05
2022-11-16T14:41:22.289Z,1.30
2022-11-16T14:43:57.562Z,0.98
2022-11-16T14:46:38.084Z,1.25
2022-11-16T14:49:40.214Z,1.40
2022-11-16T14:52:11.544Z,1.63
2022-11-16T14:55:00.655Z,1.50
2022-11-16T14:57:29.887Z,1.73
2022-11-16T15:00:32.087Z,1.92
2022-11-16T15:03:11.727Z,1.70
2022-11-16T15:05:49.906Z,1.90
2022-11-16T15:08:55.863Z,2.65
2022-11-16T15:11:54.407Z,2.28
2022-11-16T15:14:33.066Z,1.80
2022-11-16T15:17:13.292Z,2.65
2022-11-16T15:20:26.178Z,2.13
2022-11-16T15:26:04.681Z,2.65
2022-11-16T15:28:36.029Z,2.28
2022-11-16T15:31:16.921Z,2.90
2022-11-16T15:33:52.651Z,2.90
2022-11-16T15:36:39.253Z,2.67
2022-11-16T15:39:23.430Z,3.00
2022-11-16T15:41:52.730Z,2.67
2022-11-16T15:44:23.661Z,2.90
2022-11-16T15:46:55.192Z,2.65
2022-11-16T15:49:41.466Z,2.15
2022-11-16T15:52:08.564Z,2.40
2022-11-16T15:54:55.408Z,2.58
2022-11-16T15:57:24.879Z,2.40
2022-11-16T15:59:57.101Z,2.90
2022-11-16T16:02:28.992Z,3.03
2022-11-16T16:04:56.653Z,2.92
2022-11-16T16:07:43.068Z,3.20
2022-11-16T16:10:19.298Z,3.30
2022-11-16T16:13:00.248Z,3.28
2022-11-16T16:15:36.195Z,3.10
2022-11-16T16:18:39.359Z,6.22
2022-11-16T16:21:06.877Z,6.28
2022-11-16T16:23:44.428Z,5.07
2022-11-16T16:26:11.575Z,6.18
2022-11-16T16:28:38.706Z,6.95
2022-11-16T16:31:06.830Z,5.40
2022-11-16T16:33:34.236Z,3.83
2022-11-16T16:36:02.096Z,3.40
2022-11-16T16:38:29.846Z,3.75
2022-11-16T16:41:07.076Z,3.42
2022-11-16T16:43:34.904Z,3.55
2022-11-16T16:46:03.894Z,3.97
2022-11-16T16:48:31.258Z,5.40
2022-11-16T16:50:58.457Z,4.70
2022-11-16T16:53:25.702Z,4.95
2022-11-16T16:55:53.000Z,5.05
2022-11-16T16:58:20.308Z,5.28
2022-11-16T17:00:47.612Z,5.07
2022-11-16T17:03:14.885Z,4.53
2022-11-16T17:05:42.100Z,5.20
2022-11-16T17:08:09.234Z,5.03
2022-11-16T17:10:39.036Z,5.20
2022-11-16T17:13:06.510Z,4.88
2022-11-16T17:15:34.253Z,5.38
2022-11-16T17:18:01.707Z,6.28
2022-11-16T17:20:29.103Z,6.18
2022-11-16T17:22:56.365Z,6.50
2022-11-16T17:25:24.081Z,6.47
2022-11-16T17:27:52.101Z,6.65
2022-11-16T17:30:19.781Z,6.97
2022-11-16T17:32:46.953Z,6.47
2022-11-16T17:35:14.369Z,6.10
2022-11-16T17:37:41.667Z,5.72
2022-11-16T17:40:09.821Z,5.43
2022-11-16T17:42:37.557Z,4.78
2022-11-16T17:45:06.858Z,5.00
2022-11-16T17:47:34.265Z,6.53
2022-11-16T17:50:01.900Z,8.00
2022-11-16T17:52:29.216Z,8.40
2022-11-16T17:54:56.490Z,6.45
2022-11-16T17:57:24.013Z,6.20
2022-11-16T17:59:52.133Z,6.97
2022-11-16T18:02:19.640Z,7.50
2022-11-16T18:04:51.280Z,8.70
2022-11-16T18:07:19.065Z,8.32
2022-11-16T18:09:46.858Z,8.40
2022-11-16T18:12:14.435Z,10.27
2022-11-16T18:14:42.486Z,12.20
2022-11-16T18:17:10.177Z,8.95
2022-11-16T18:19:37.415Z,8.25
2022-11-16T18:22:04.721Z,7.57
2022-11-16T18:24:32.422Z,7.35
2022-11-16T18:27:00.457Z,8.50
2022-11-16T18:29:28.664Z,8.77
2022-11-16T18:31:55.835Z,8.55
2022-11-16T18:34:23.099Z,9.50
2022-11-16T18:36:50.957Z,9.18
2022-11-16T18:39:18.307Z,10.25
2022-11-16T18:41:51.718Z,10.20
2022-11-16T18:44:22.549Z,10.88
2022-11-16T18:46:50.556Z,9.57
2022-11-16T18:49:19.505Z,8.95
2022-11-16T18:51:46.764Z,11.07
2022-11-16T18:54:14.046Z,9.93
2022-11-16T18:56:41.976Z,9.40
2022-11-16T18:59:09.454Z,9.85
2022-11-16T19:01:37.376Z,10.18
2022-11-16T19:04:05.315Z,9.32
2022-11-16T19:06:32.801Z,8.05
2022-11-16T19:09:01.333Z,10.00
2022-11-16T19:11:28.879Z,10.52
2022-11-16T19:14:07.476Z,10.38
2022-11-16T19:16:36.001Z,10.15
2022-11-16T19:19:04.451Z,9.80
2022-11-16T19:21:31.968Z,9.85
2022-11-16T19:23:59.919Z,9.77
2022-11-16T19:26:29.077Z,9.27
2022-11-16T19:28:56.960Z,9.38
2022-11-16T19:31:30.484Z,8.55
2022-11-16T19:34:10.086Z,8.93
2022-11-16T19:36:37.851Z,8.93
2022-11-16T19:39:05.980Z,8.27
2022-11-16T19:41:33.619Z,9.25
2022-11-16T19:44:01.855Z,9.18
2022-11-16T19:46:33.882Z,8.80
2022-11-16T19:49:01.718Z,8.93
2022-11-16T19:51:32.522Z,9.40
2022-11-16T19:54:03.498Z,9.82
2022-11-16T19:56:31.307Z,10.15
2022-11-16T19:58:59.193Z,16.75
2022-11-16T20:01:29.597Z,15.95
2022-11-16T20:04:02.099Z,14.60
2022-11-16T20:06:36.292Z,12.40
2022-11-16T20:09:08.924Z,11.18
2022-11-16T20:11:41.795Z,12.07
2022-11-16T20:14:12.258Z,12.57
2022-11-16T20:16:43.533Z,12.73
2022-11-16T20:19:11.026Z,15.38
2022-11-16T20:21:43.956Z,19.63
2022-11-16T20:24:15.360Z,17.40
2022-11-16T20:26:47.903Z,15.18
2022-11-16T20:29:18.299Z,13.82
2022-11-16T20:31:46.339Z,14.43
2022-11-16T20:34:16.918Z,14.30
2022-11-16T20:36:47.962Z,13.32
2022-11-16T20:39:20.914Z,12.57
2022-11-16T20:41:48.978Z,11.90
2022-11-16T20:44:21.018Z,12.13
2022-11-16T20:46:49.042Z,12.15
2022-11-16T20:49:16.371Z,11.27
2022-11-16T20:51:46.023Z,10.00
2022-11-16T20:54:13.254Z,10.32
2022-11-16T20:56:40.709Z,10.70
2022-11-16T20:59:07.879Z,9.88
2022-11-16T21:01:36.612Z,10.15
2022-11-16T21:04:06.159Z,9.65
2022-11-16T21:06:34.157Z,10.40
2022-11-16T21:09:02.203Z,9.48
2022-11-16T21:11:55.578Z,10.45
2022-11-16T21:14:36.023Z,9.82
2022-11-16T21:17:03.213Z,10.77
2022-11-16T21:19:30.328Z,12.15
2022-11-16T21:21:57.458Z,10.50
2022-11-16T21:24:24.841Z,8.73
2022-11-16T21:26:52.435Z,9.93
2022-11-16T21:29:25.746Z,11.23
2022-11-16T21:31:52.935Z,10.77
2022-11-16T21:34:20.281Z,10.05
2022-11-16T21:36:47.699Z,10.98
2022-11-16T21:39:14.841Z,11.38
2022-11-16T21:41:42.330Z,9.95
2022-11-16T21:44:11.886Z,10.25
2022-11-16T21:46:39.051Z,9.35
2022-11-16T21:49:07.532Z,9.68
2022-11-16T21:51:34.723Z,10.30
2022-11-16T21:54:01.956Z,9.73
2022-11-16T21:56:29.109Z,9.70
2022-11-16T21:58:56.268Z,9.68
2022-11-16T22:01:24.522Z,8.80
2022-11-16T22:04:10.755Z,9.13
2022-11-16T22:07:07.271Z,9.90
2022-11-16T22:09:34.668Z,8.65
2022-11-16T22:12:05.215Z,9.10
2022-11-16T22:14:32.886Z,11.95
2022-11-16T22:17:00.446Z,10.93
2022-11-16T22:19:27.838Z,10.43
2022-11-16T22:21:55.150Z,9.88
2022-11-16T22:24:22.436Z,9.68
2022-11-16T22:26:49.881Z,9.80
2022-11-16T22:29:17.192Z,10.95
2022-11-16T22:31:44.674Z,9.85
2022-11-16T22:34:12.014Z,12.38
2022-11-16T22:36:39.195Z,11.80
2022-11-16T22:39:06.440Z,10.77
2022-11-16T22:41:33.667Z,9.20
2022-11-16T22:44:00.948Z,9.55
2022-11-16T22:46:29.371Z,9.32
2022-11-16T22:48:56.978Z,9.85
2022-11-16T22:51:28.304Z,8.70
2022-11-16T22:54:03.703Z,9.77
2022-11-16T22:56:33.963Z,9.80
2022-11-16T22:59:03.606Z,9.27
2022-11-16T23:01:31.924Z,9.30
2022-11-16T23:03:59.258Z,8.60
2022-11-16T23:06:26.732Z,9.75
2022-11-16T23:08:55.683Z,7.97
2022-11-16T23:11:44.676Z,8.63
2022-11-16T23:14:36.086Z,8.18
2022-11-16T23:17:07.132Z,8.18
2022-11-16T23:19:53.553Z,8.32
2022-11-16T23:22:41.143Z,8.82
2022-11-16T23:25:30.805Z,8.48
2022-11-16T23:28:10.593Z,7.97
2022-11-16T23:30:40.876Z,8.20
2022-11-16T23:33:09.128Z,8.75
2022-11-16T23:35:36.584Z,8.13
2022-11-16T23:38:07.633Z,8.32
2022-11-16T23:40:41.099Z,8.45
2022-11-16T23:43:32.568Z,7.90
2022-11-16T23:46:05.069Z,7.82
2022-11-16T23:48:32.844Z,8.18
2022-11-16T23:51:01.587Z,7.65
2022-11-16T23:53:36.749Z,7.68
2022-11-16T23:56:06.182Z,7.88
2022-11-16T23:58:33.946Z,7.47
